Time;durP1;ratioP1;P1;durP2;ratioP2;P2;SDS_P1;SDS_P2;PMS_P1;PMS_P2;Temp;Humidity;BMP_temperature;BMP_pressure;BME280_temperature;BME280_humidity;BME280_pressure;Samples;Min_cycle;Max_cycle;Signal;HPM_P1;HPM_P2
2023/01/10 00:00:12;;;;;;;10.13;5.72;;;22.40;99.90;;;;;;5034207;28;20053;-51
2023/01/10 00:02:38;;;;;;;10.40;6.20;;;22.40;99.90;;;;;;5034699;28;20382;-51
2023/01/10 00:05:04;;;;;;;8.85;6.30;;;22.40;99.90;;;;;;5034328;28;20032;-51
2023/01/10 00:07:30;;;;;;;8.50;5.85;;;22.40;99.90;;;;;;5034535;28;20100;-51
2023/01/10 00:09:56;;;;;;;9.10;6.63;;;22.40;99.90;;;;;;5034276;28;20061;-51
2023/01/10 00:15:06;;;;;;;11.32;6.95;;;22.40;99.90;;;;;;5034029;28;20033;-51
2023/01/10 00:17:32;;;;;;;9.50;6.47;;;22.40;99.90;;;;;;5034146;28;20096;-51
2023/01/10 00:19:58;;;;;;;9.48;6.43;;;22.40;99.90;;;;;;5032823;28;20060;-51
2023/01/10 00:22:24;;;;;;;8.77;6.07;;;22.40;99.90;;;;;;5034043;28;20025;-51
2023/01/10 00:24:50;;;;;;;9.77;6.30;;;22.40;99.90;;;;;;5032611;28;20021;-51
2023/01/10 00:27:21;;;;;;;12.00;6.82;;;22.30;99.90;;;;;;5033847;28;20028;-51
2023/01/10 00:29:48;;;;;;;11.20;6.88;;;22.30;99.90;;;;;;5034027;28;20033;-50
2023/01/10 00:32:14;;;;;;;11.13;6.80;;;22.30;99.90;;;;;;5033743;28;20022;-50
2023/01/10 00:34:40;;;;;;;9.75;6.22;;;22.30;99.90;;;;;;5033732;28;20052;-51
2023/01/10 00:37:05;;;;;;;9.27;6.63;;;22.30;99.90;;;;;;5033796;28;20026;-51
2023/01/10 00:39:31;;;;;;;10.80;7.60;;;22.30;99.90;;;;;;5033912;28;20031;-51
2023/01/10 00:44:41;;;;;;;10.43;6.75;;;22.30;99.90;;;;;;5033572;28;20033;-51
2023/01/10 00:47:07;;;;;;;11.50;7.45;;;22.30;99.90;;;;;;5033304;28;20033;-51
2023/01/10 00:49:33;;;;;;;11.30;7.57;;;22.20;99.90;;;;;;5015931;28;20367;-51
2023/01/10 00:51:58;;;;;;;11.80;7.45;;;22.20;99.90;;;;;;5033370;28;20425;-50
2023/01/10 00:54:24;;;;;;;12.77;8.32;;;22.20;99.90;;;;;;5033324;28;20128;-51
2023/01/10 00:56:50;;;;;;;11.27;7.80;;;22.20;99.90;;;;;;5033288;28;20048;-51
2023/01/10 00:59:16;;;;;;;13.18;8.73;;;22.20;99.90;;;;;;5033851;28;20033;-51
2023/01/10 01:01:42;;;;;;;10.88;7.60;;;22.20;99.90;;;;;;5033030;28;20056;-51
2023/01/10 01:04:08;;;;;;;14.48;8.48;;;22.20;99.90;;;;;;5033155;28;20182;-51
2023/01/10 01:06:34;;;;;;;17.25;9.32;;;22.10;99.90;;;;;;5033371;28;20018;-51
2023/01/10 01:08:59;;;;;;;12.73;8.48;;;22.20;99.90;;;;;;5033243;28;20374;-51
2023/01/10 01:11:25;;;;;;;14.75;8.95;;;22.20;99.90;;;;;;5033216;28;20021;-50
2023/01/10 01:13:51;;;;;;;13.02;9.23;;;22.20;99.90;;;;;;5033210;28;20083;-50
2023/01/10 01:16:18;;;;;;;13.52;8.82;;;22.20;99.90;;;;;;5033037;28;20021;-51
2023/01/10 01:18:44;;;;;;;12.05;8.30;;;22.10;99.90;;;;;;5033005;28;20133;-50
2023/01/10 01:21:09;;;;;;;15.77;9.43;;;22.10;99.90;;;;;;5032700;28;20524;-51
2023/01/10 01:23:36;;;;;;;13.13;8.30;;;22.10;99.90;;;;;;5031647;28;20029;-51
2023/01/10 01:26:02;;;;;;;12.23;8.20;;;22.10;99.90;;;;;;5033015;28;20104;-51
2023/01/10 01:28:27;;;;;;;13.40;8.35;;;22.10;99.90;;;;;;5032851;28;20108;-51
2023/01/10 01:30:53;;;;;;;11.63;7.97;;;22.10;99.90;;;;;;5015138;28;20055;-50
2023/01/10 01:33:19;;;;;;;13.00;8.27;;;22.10;99.90;;;;;;5032776;28;20389;-51
2023/01/10 01:35:47;;;;;;;10.65;7.20;;;22.10;99.90;;;;;;5032672;28;20021;-51
2023/01/10 01:38:13;;;;;;;;;;;22.00;99.90;;;;;;5033069;28;20026;-51
2023/01/10 01:40:40;;;;;;;10.50;7.20;;;22.00;99.90;;;;;;5032562;28;19912;-51
2023/01/10 01:43:28;;;;;;;11.57;7.22;;;22.10;99.90;;;;;;5032842;28;20056;-51
2023/01/10 01:45:56;;;;;;;12.18;7.38;;;22.10;99.90;;;;;;5032923;28;20109;-51
2023/01/10 01:48:42;;;;;;;11.05;6.72;;;22.10;99.90;;;;;;5031628;28;20387;-50
2023/01/10 01:51:24;;;;;;;11.55;7.22;;;22.00;99.90;;;;;;5032175;28;20116;-50
2023/01/10 01:53:56;;;;;;;9.40;6.20;;;22.00;99.90;;;;;;5032400;28;20033;-51
2023/01/10 01:56:27;;;;;;;11.30;7.50;;;22.00;99.90;;;;;;5032368;28;20025;-50
2023/01/10 01:58:56;;;;;;;10.00;6.25;;;22.00;99.90;;;;;;5031700;28;20473;-50
2023/01/10 02:01:22;;;;;;;8.55;6.00;;;22.00;99.90;;;;;;5044568;22;20615;-46
2023/01/10 02:03:53;;;;;;;10.55;6.82;;;22.00;99.90;;;;;;5031146;28;20017;-46
2023/01/10 02:06:20;;;;;;;10.50;6.32;;;22.00;99.90;;;;;;5032422;28;20028;-46
2023/01/10 02:08:50;;;;;;;;;;;22.00;99.90;;;;;;5031242;28;20505;-46
2023/01/10 02:11:16;;;;;;;8.65;5.88;;;21.90;99.90;;;;;;5032119;28;19905;-48
2023/01/10 02:13:44;;;;;;;12.18;6.82;;;21.90;99.90;;;;;;5025484;28;20022;-46
2023/01/10 02:16:10;;;;;;;9.43;6.85;;;21.90;99.90;;;;;;5013365;28;20387;-45
2023/01/10 02:18:41;;;;;;;9.20;5.88;;;21.90;99.90;;;;;;5030493;28;20022;-47
2023/01/10 02:21:33;;;;;;;8.80;5.47;;;21.90;99.90;;;;;;5020518;28;20081;-48
2023/01/10 02:24:22;;;;;;;8.32;5.68;;;21.90;99.90;;;;;;5019085;28;20038;-45
2023/01/10 02:27:06;;;;;;;10.38;5.97;;;21.90;99.90;;;;;;5031784;28;20088;-46
2023/01/10 02:29:52;;;;;;;8.60;5.22;;;21.90;99.90;;;;;;5030647;28;20514;-46
2023/01/10 02:32:30;;;;;;;11.55;5.78;;;21.90;99.90;;;;;;5031503;28;20528;-46
2023/01/10 02:34:59;;;;;;;7.63;5.35;;;21.90;99.90;;;;;;5030578;28;20369;-47
2023/01/10 02:37:36;;;;;;;10.50;6.60;;;21.90;99.90;;;;;;5031215;28;20059;-47
2023/01/10 02:40:15;;;;;;;9.13;5.45;;;21.90;99.90;;;;;;5031128;28;20014;-46
2023/01/10 02:43:11;;;;;;;8.85;4.72;;;21.90;99.90;;;;;;5031574;28;20078;-47
2023/01/10 02:45:58;;;;;;;8.32;5.30;;;21.90;99.90;;;;;;5031559;28;20571;-46
2023/01/10 02:48:23;;;;;;;8.80;4.43;;;22.00;99.90;;;;;;5031269;28;20083;-46
2023/01/10 02:51:02;;;;;;;6.43;4.25;;;21.90;99.90;;;;;;5030735;28;20026;-47
2023/01/10 02:53:43;;;;;;;8.50;4.70;;;21.90;99.90;;;;;;5031502;28;20029;-46
2023/01/10 02:56:11;;;;;;;8.82;4.95;;;21.90;99.90;;;;;;5031393;28;20104;-45
2023/01/10 02:59:08;;;;;;;5.90;4.30;;;21.90;99.90;;;;;;5031241;28;20131;-48
2023/01/10 03:01:42;;;;;;;8.48;4.53;;;21.90;99.90;;;;;;5030301;28;20630;-45
2023/01/10 03:04:38;;;;;;;7.90;4.45;;;21.90;99.90;;;;;;5031000;28;20022;-46
2023/01/10 03:07:19;;;;;;;8.07;4.50;;;21.90;99.90;;;;;;5030996;28;20029;-46
2023/01/10 03:10:21;;;;;;;6.88;4.00;;;21.90;99.90;;;;;;5031040;28;20022;-46
2023/01/10 03:13:09;;;;;;;7.13;4.25;;;21.90;99.90;;;;;;5034242;28;20017;-45
2023/01/10 03:15:39;;;;;;;6.82;4.20;;;21.90;99.90;;;;;;5034253;28;20393;-47
2023/01/10 03:18:11;;;;;;;8.82;4.32;;;21.90;99.90;;;;;;5034628;28;20025;-47
2023/01/10 03:20:41;;;;;;;6.05;3.97;;;21.90;99.90;;;;;;5034977;28;20159;-46
2023/01/10 03:23:08;;;;;;;3.72;3.05;;;21.90;99.90;;;;;;5034952;28;20021;-47
2023/01/10 03:25:36;;;;;;;6.28;3.92;;;21.90;99.90;;;;;;5034606;28;20033;-46
2023/01/10 03:28:29;;;;;;;6.80;3.95;;;21.90;99.90;;;;;;5032985;28;20041;-47
2023/01/10 03:31:09;;;;;;;5.82;3.65;;;21.90;99.90;;;;;;5032347;28;20053;-46
2023/01/10 03:33:35;;;;;;;5.18;3.60;;;21.80;99.90;;;;;;5032655;28;20021;-46
2023/01/10 03:36:25;;;;;;;5.63;3.08;;;21.80;99.90;;;;;;5032392;28;20114;-47
2023/01/10 03:38:54;;;;;;;6.45;3.92;;;21.80;99.90;;;;;;5034483;28;20412;-47
2023/01/10 03:41:49;;;;;;;5.50;3.55;;;21.80;99.90;;;;;;5034561;28;20033;-48
2023/01/10 03:44:44;;;;;;;5.63;3.50;;;21.80;99.90;;;;;;5034476;28;20025;-47
2023/01/10 03:47:24;;;;;;;4.68;3.35;;;21.80;99.90;;;;;;5034438;28;20026;-48
2023/01/10 03:49:56;;;;;;;7.15;4.13;;;21.80;99.90;;;;;;5033255;28;20025;-47
2023/01/10 03:52:23;;;;;;;6.03;3.10;;;21.70;99.90;;;;;;5032680;28;20018;-47
2023/01/10 03:54:50;;;;;;;4.95;2.88;;;21.70;99.90;;;;;;5033681;28;20014;-47
2023/01/10 03:57:18;;;;;;;5.70;3.60;;;21.70;99.90;;;;;;5033514;28;20135;-47
2023/01/10 03:59:44;;;;;;;4.82;3.08;;;21.70;99.90;;;;;;5034966;28;20041;-48
2023/01/10 04:02:11;;;;;;;6.82;3.33;;;21.70;99.90;;;;;;5034650;28;20030;-48
2023/01/10 04:04:36;;;;;;;6.75;2.90;;;21.70;99.90;;;;;;5034290;28;20028;-48
2023/01/10 04:07:02;;;;;;;4.68;2.97;;;21.70;99.90;;;;;;5034328;28;20394;-47
2023/01/10 04:09:28;;;;;;;5.20;2.92;;;21.70;99.90;;;;;;5034330;28;20115;-47
2023/01/10 04:11:54;;;;;;;6.45;3.75;;;21.60;99.90;;;;;;5034300;28;20037;-48
2023/01/10 04:14:19;;;;;;;3.42;2.70;;;21.60;99.90;;;;;;5034239;28;20032;-47
2023/01/10 04:16:45;;;;;;;4.07;3.10;;;21.70;99.90;;;;;;5016315;28;20025;-48
2023/01/10 04:19:11;;;;;;;4.35;3.20;;;21.60;99.90;;;;;;5034250;28;20465;-48
2023/01/10 04:21:36;;;;;;;4.20;2.47;;;21.60;99.90;;;;;;5033441;28;20112;-48
2023/01/10 04:24:02;;;;;;;5.50;3.03;;;21.60;99.90;;;;;;5033932;28;20124;-48
2023/01/10 04:26:28;;;;;;;4.25;2.55;;;21.60;99.90;;;;;;5033891;28;20060;-48
2023/01/10 04:28:54;;;;;;;4.95;3.10;;;21.60;99.90;;;;;;5033748;28;20029;-48
2023/01/10 04:31:21;;;;;;;4.07;2.88;;;21.60;99.90;;;;;;5033921;28;20100;-47
2023/01/10 04:33:47;;;;;;;6.00;2.92;;;21.60;99.90;;;;;;5033774;28;20428;-48
2023/01/10 04:36:13;;;;;;;4.63;2.80;;;21.60;99.90;;;;;;5033965;28;20029;-47
2023/01/10 04:38:39;;;;;;;4.30;2.95;;;21.60;99.90;;;;;;5033612;28;20442;-47
2023/01/10 04:41:04;;;;;;;5.07;2.75;;;21.60;99.90;;;;;;5033605;28;20030;-48
2023/01/10 04:43:30;;;;;;;4.80;2.72;;;21.60;99.90;;;;;;5033571;28;20096;-47
2023/01/10 04:45:56;;;;;;;3.42;2.20;;;21.60;99.90;;;;;;5033605;28;20060;-47
2023/01/10 04:48:22;;;;;;;5.30;2.63;;;21.60;99.90;;;;;;5033479;28;20477;-48
2023/01/10 04:50:52;;;;;;;3.65;2.17;;;21.50;99.90;;;;;;5033499;28;20104;-49
2023/01/10 04:53:19;;;;;;;4.18;2.22;;;21.60;99.90;;;;;;5033447;28;20037;-48
2023/01/10 04:55:45;;;;;;;4.22;2.80;;;21.60;99.90;;;;;;5033370;28;20089;-45
2023/01/10 04:58:11;;;;;;;4.63;2.38;;;21.50;99.90;;;;;;5032176;28;20021;-46
2023/01/10 05:00:37;;;;;;;5.10;2.95;;;21.50;99.90;;;;;;5045037;23;20094;-60
2023/01/10 05:03:03;;;;;;;4.13;2.80;;;21.50;99.90;;;;;;5048516;28;20026;-59
2023/01/10 05:05:30;;;;;;;3.70;2.63;;;21.50;99.90;;;;;;5033165;28;20028;-60
2023/01/10 05:07:56;;;;;;;4.47;2.83;;;21.50;99.90;;;;;;5033216;28;20021;-60
2023/01/10 05:10:22;;;;;;;4.28;2.83;;;21.50;99.90;;;;;;5033247;28;20538;-60
2023/01/10 05:12:47;;;;;;;4.55;2.47;;;21.50;99.90;;;;;;5033213;28;20017;-60
2023/01/10 05:15:13;;;;;;;3.53;2.60;;;21.50;99.90;;;;;;5031921;28;20049;-60
2023/01/10 05:17:39;;;;;;;7.85;2.35;;;21.50;99.90;;;;;;5033067;28;20053;-61
2023/01/10 05:20:06;;;;;;;3.80;1.88;;;21.50;99.90;;;;;;5032887;28;20029;-59
2023/01/10 05:22:32;;;;;;;3.80;2.50;;;21.50;99.90;;;;;;5032748;28;20595;-58
2023/01/10 05:24:57;;;;;;;4.32;2.20;;;21.50;99.90;;;;;;5032811;28;20038;-59
2023/01/10 05:27:23;;;;;;;2.97;2.15;;;21.50;99.90;;;;;;5032931;28;20029;-59
2023/01/10 05:29:49;;;;;;;5.18;2.47;;;21.50;99.90;;;;;;5032772;28;20025;-60
2023/01/10 05:32:14;;;;;;;2.95;2.10;;;21.50;99.90;;;;;;5033091;28;20131;-59
2023/01/10 05:34:40;;;;;;;3.13;2.33;;;21.50;99.90;;;;;;5031864;28;20030;-59
2023/01/10 05:37:06;;;;;;;3.88;2.67;;;21.50;99.90;;;;;;5031346;28;20021;-60
2023/01/10 05:39:32;;;;;;;2.92;2.05;;;21.40;99.90;;;;;;5031308;28;20033;-61
2023/01/10 05:41:58;;;;;;;6.07;2.45;;;21.40;99.90;;;;;;5032614;28;20034;-61
2023/01/10 05:44:24;;;;;;;2.83;2.10;;;21.40;99.90;;;;;;5032470;28;20013;-62
2023/01/10 05:46:49;;;;;;;3.78;2.38;;;21.50;99.90;;;;;;5032568;28;20029;-62
2023/01/10 05:49:15;;;;;;;2.67;1.92;;;21.50;99.90;;;;;;5031378;28;20030;-62
2023/01/10 05:51:41;;;;;;;2.92;2.05;;;21.40;99.90;;;;;;5032447;28;20022;-62
2023/01/10 05:54:07;;;;;;;3.28;2.17;;;21.40;99.90;;;;;;5032408;28;20046;-62
2023/01/10 05:56:33;;;;;;;2.72;1.90;;;21.40;99.90;;;;;;5032577;28;20025;-61
2023/01/10 05:58:59;;;;;;;3.30;2.38;;;21.40;99.90;;;;;;5032376;28;20374;-62
2023/01/10 06:01:24;;;;;;;3.72;2.33;;;21.40;99.90;;;;;;5032124;28;20057;-62
2023/01/10 06:03:50;;;;;;;3.47;1.80;;;21.40;99.90;;;;;;5030899;28;20460;-62
2023/01/10 06:06:16;;;;;;;3.03;2.25;;;21.40;99.90;;;;;;5031186;28;20385;-62
2023/01/10 06:08:42;;;;;;;4.70;2.95;;;21.40;99.90;;;;;;5030843;28;20018;-62
2023/01/10 06:11:07;;;;;;;5.57;3.30;;;21.40;99.90;;;;;;5030916;28;20037;-60
2023/01/10 06:13:33;;;;;;;5.75;2.67;;;21.40;99.90;;;;;;5030931;28;20029;-60
2023/01/10 06:15:59;;;;;;;6.03;3.80;;;21.40;99.90;;;;;;5032164;28;20026;-59
2023/01/10 06:18:25;;;;;;;6.95;4.60;;;21.40;99.90;;;;;;5032309;28;20112;-60
2023/01/10 06:20:51;;;;;;;5.80;3.92;;;21.40;99.90;;;;;;5031973;28;20030;-61
2023/01/10 06:23:17;;;;;;;6.80;4.60;;;21.40;99.90;;;;;;5032242;28;20057;-61
2023/01/10 06:25:43;;;;;;;5.85;4.20;;;21.40;99.90;;;;;;5032058;28;20488;-60
2023/01/10 06:28:11;;;;;;;8.02;5.28;;;21.40;99.90;;;;;;5031989;28;20021;-61
2023/01/10 06:30:37;;;;;;;8.60;5.50;;;21.40;99.90;;;;;;5032194;28;20486;-61
2023/01/10 06:33:07;;;;;;;6.72;4.70;;;21.40;99.90;;;;;;5030539;28;20080;-61
2023/01/10 06:35:34;;;;;;;8.43;5.70;;;21.40;99.90;;;;;;5031959;28;20025;-61
2023/01/10 06:37:59;;;;;;;9.05;5.40;;;21.40;99.90;;;;;;5031841;28;20032;-61
2023/01/10 06:40:27;;;;;;;9.27;5.78;;;21.30;99.90;;;;;;5031792;28;20029;-61
2023/01/10 06:42:52;;;;;;;8.05;5.32;;;21.30;99.90;;;;;;5031933;28;20456;-62
2023/01/10 06:45:18;;;;;;;7.85;5.80;;;21.30;99.90;;;;;;5033045;28;20116;-61
2023/01/10 06:47:44;;;;;;;10.50;6.40;;;21.30;99.90;;;;;;5035699;28;20474;-59
2023/01/10 06:50:12;;;;;;;11.07;6.43;;;21.40;99.90;;;;;;5035685;28;20022;-58
2023/01/10 06:52:38;;;;;;;;;;;21.40;99.90;;;;;;5035990;28;20029;-59
2023/01/10 06:55:05;;;;;;;13.10;6.68;;;21.40;99.90;;;;;;5035779;28;19905;-60
2023/01/10 06:57:34;;;;;;;12.02;7.72;;;21.40;99.90;;;;;;5035513;28;20021;-60
2023/01/10 07:00:05;;;;;;;11.25;7.55;;;21.30;99.90;;;;;;5035280;28;20052;-60
2023/01/10 07:02:31;;;;;;;10.93;7.13;;;21.30;99.90;;;;;;5035565;28;20021;-60
2023/01/10 07:04:56;;;;;;;11.32;7.28;;;21.30;99.90;;;;;;5035322;28;20029;-59
2023/01/10 07:07:22;;;;;;;12.60;7.50;;;21.30;99.90;;;;;;5035424;28;20037;-60
2023/01/10 07:09:48;;;;;;;8.10;6.35;;;21.30;99.90;;;;;;5034378;28;20190;-61
2023/01/10 07:12:14;;;;;;;11.00;7.10;;;21.30;99.90;;;;;;5035310;28;20032;-61
2023/01/10 07:14:39;;;;;;;11.10;7.47;;;21.30;99.90;;;;;;5035271;28;20021;-60
2023/01/10 07:17:05;;;;;;;10.45;6.78;;;21.30;99.90;;;;;;5035233;28;20037;-60
2023/01/10 07:19:31;;;;;;;7.47;5.72;;;21.30;99.90;;;;;;5035083;28;20112;-61
2023/01/10 07:21:57;;;;;;;10.02;6.22;;;21.30;99.90;;;;;;5035078;28;20387;-60
2023/01/10 07:24:22;;;;;;;8.30;6.07;;;21.30;99.90;;;;;;5035428;28;20054;-60
2023/01/10 07:26:48;;;;;;;10.98;6.72;;;21.30;99.90;;;;;;5034139;28;20075;-61
2023/01/10 07:29:14;;;;;;;10.40;7.50;;;21.30;99.90;;;;;;5035049;28;20021;-61
2023/01/10 07:31:40;;;;;;;10.10;6.80;;;21.20;99.90;;;;;;5034997;28;20032;-61
2023/01/10 07:34:05;;;;;;;11.02;7.10;;;21.30;99.90;;;;;;5034581;28;20025;-60
2023/01/10 07:36:31;;;;;;;10.88;6.97;;;21.20;99.90;;;;;;5035041;28;20025;-60
2023/01/10 07:38:57;;;;;;;10.27;7.13;;;21.20;99.90;;;;;;5033717;28;20508;-61
2023/01/10 07:41:23;;;;;;;12.35;7.20;;;21.20;99.90;;;;;;5034864;28;20029;-60
2023/01/10 07:43:49;;;;;;;10.25;6.93;;;21.20;99.90;;;;;;5034831;28;20315;-60
2023/01/10 07:46:14;;;;;;;11.23;7.32;;;21.30;99.90;;;;;;5034722;28;20104;-60
2023/01/10 07:48:40;;;;;;;11.60;6.90;;;21.20;99.90;;;;;;5034748;28;20418;-60
2023/01/10 07:51:06;;;;;;;11.00;7.38;;;21.20;99.90;;;;;;5034601;28;20104;-60
2023/01/10 07:53:32;;;;;;;10.07;7.18;;;21.20;99.90;;;;;;5034370;28;20378;-61
2023/01/10 07:55:59;;;;;;;11.93;7.65;;;21.30;99.90;;;;;;5034360;28;20021;-61
2023/01/10 07:58:25;;;;;;;8.23;6.40;;;21.30;99.90;;;;;;5033404;28;20017;-61
2023/01/10 08:00:51;;;;;;;10.82;7.05;;;21.30;99.90;;;;;;5034346;28;20080;-61
2023/01/10 08:03:17;;;;;;;12.35;7.07;;;21.30;99.90;;;;;;5034335;28;20056;-61
2023/01/10 08:05:43;;;;;;;10.88;7.30;;;21.30;99.90;;;;;;5034503;28;20021;-61
2023/01/10 08:08:11;;;;;;;10.75;7.15;;;21.30;99.90;;;;;;5034305;28;20036;-60
2023/01/10 08:10:38;;;;;;;11.55;7.45;;;21.30;99.90;;;;;;5034160;28;20021;-60
2023/01/10 08:13:05;;;;;;;9.20;6.47;;;21.30;99.90;;;;;;5034157;28;20044;-60
2023/01/10 08:15:30;;;;;;;8.95;6.75;;;21.40;99.90;;;;;;5034037;28;20030;-60
2023/01/10 08:18:02;;;;;;;10.13;7.30;;;21.40;99.90;;;;;;5033915;28;20036;-60
2023/01/10 08:20:29;;;;;;;10.15;7.40;;;21.40;99.90;;;;;;5033967;28;20065;-60
2023/01/10 08:22:58;;;;;;;11.10;7.07;;;21.50;99.90;;;;;;5034162;28;20371;-60
2023/01/10 08:25:25;;;;;;;10.15;7.40;;;21.50;99.90;;;;;;5034275;28;20425;-60
2023/01/10 08:27:51;;;;;;;10.20;7.22;;;21.50;99.90;;;;;;5033948;28;20076;-61
2023/01/10 08:30:17;;;;;;;10.05;6.88;;;21.50;99.90;;;;;;5033750;28;20030;-61
2023/01/10 08:32:43;;;;;;;10.15;7.13;;;21.50;99.90;;;;;;5033835;28;20025;-61
2023/01/10 08:35:10;;;;;;;10.70;7.07;;;21.60;99.90;;;;;;5032348;28;20025;-61
2023/01/10 08:37:36;;;;;;;10.63;7.33;;;21.60;99.90;;;;;;5032478;28;20028;-61
2023/01/10 08:40:02;;;;;;;9.55;7.00;;;21.60;99.90;;;;;;5033671;28;20262;-61
2023/01/10 08:42:28;;;;;;;9.95;6.72;;;21.70;99.90;;;;;;5032525;28;20051;-61
2023/01/10 08:44:54;;;;;;;9.65;7.15;;;21.70;99.90;;;;;;5033716;28;20077;-60
2023/01/10 08:47:20;;;;;;;11.15;7.32;;;21.70;99.90;;;;;;5033682;28;20026;-62
2023/01/10 08:49:48;;;;;;;9.02;6.88;;;21.70;99.90;;;;;;5033501;28;20026;-60
2023/01/10 08:52:14;;;;;;;12.85;7.45;;;21.70;99.90;;;;;;5033511;28;20401;-60
2023/01/10 08:54:40;;;;;;;10.23;6.55;;;21.80;99.90;;;;;;5033304;28;20048;-60
2023/01/10 08:57:06;;;;;;;12.38;7.32;;;21.80;99.90;;;;;;5033290;28;20021;-60
2023/01/10 08:59:31;;;;;;;9.40;7.10;;;21.80;99.90;;;;;;5033021;28;20056;-60
2023/01/10 09:01:58;;;;;;;9.82;6.60;;;21.80;99.90;;;;;;5033418;28;20034;-61
2023/01/10 09:04:25;;;;;;;9.77;7.40;;;21.90;99.90;;;;;;5033306;28;20025;-60
2023/01/10 09:06:51;;;;;;;9.48;6.80;;;21.90;99.90;;;;;;5031995;28;20072;-61
2023/01/10 09:09:17;;;;;;;8.52;6.35;;;21.90;99.90;;;;;;5032948;28;20033;-61
2023/01/10 09:11:43;;;;;;;10.10;6.70;;;21.90;99.90;;;;;;5033001;28;20021;-63
2023/01/10 09:14:08;;;;;;;11.85;7.00;;;21.90;99.90;;;;;;5032925;28;20033;-61
2023/01/10 09:16:34;;;;;;;9.07;6.07;;;22.00;99.90;;;;;;5032929;28;20036;-60
2023/01/10 09:19:00;;;;;;;9.00;6.50;;;22.00;99.90;;;;;;5032988;28;20075;-62
2023/01/10 09:21:27;;;;;;;9.00;6.30;;;22.00;99.90;;;;;;5033060;28;20033;-61
2023/01/10 09:23:53;;;;;;;7.75;5.88;;;22.10;99.90;;;;;;5032816;28;20425;-61
2023/01/10 09:26:18;;;;;;;9.93;6.45;;;22.10;99.90;;;;;;5032756;28;20033;-60
2023/01/10 09:28:44;;;;;;;10.40;6.28;;;22.10;99.90;;;;;;5032545;28;20458;-60
2023/01/10 09:31:10;;;;;;;9.18;6.13;;;22.20;99.90;;;;;;5032635;28;20048;-60
2023/01/10 09:33:37;;;;;;;10.35;5.88;;;22.20;99.90;;;;;;5032537;28;20500;-60
2023/01/10 09:36:03;;;;;;;10.37;6.13;;;22.20;99.90;;;;;;5032891;28;20029;-60
2023/01/10 09:38:29;;;;;;;9.40;6.00;;;22.30;99.90;;;;;;5032659;28;20267;-60
2023/01/10 09:41:15;;;;;;;10.82;6.43;;;22.30;99.90;;;;;;5032639;28;20079;-60
2023/01/10 09:44:02;;;;;;;9.93;6.40;;;22.30;99.90;;;;;;5032466;28;20029;-60
2023/01/10 09:46:36;;;;;;;10.38;5.70;;;22.40;99.90;;;;;;5032637;28;20432;-61
2023/01/10 09:49:21;;;;;;;9.88;5.70;;;22.40;99.90;;;;;;5032427;28;20030;-60
2023/01/10 09:51:50;;;;;;;9.50;5.53;;;22.50;99.90;;;;;;5032391;28;20079;-60
2023/01/10 09:54:35;;;;;;;11.18;6.15;;;22.50;99.90;;;;;;5031122;28;20496;-60
2023/01/10 09:57:01;;;;;;;8.85;5.32;;;22.50;99.90;;;;;;5032542;28;20104;-60
2023/01/10 09:59:36;;;;;;;9.15;5.28;;;22.60;99.90;;;;;;5032387;28;20453;-60
2023/01/10 10:02:31;;;;;;;12.13;5.95;;;22.60;99.90;;;;;;5030789;28;20116;-60
2023/01/10 10:05:07;;;;;;;10.88;5.43;;;22.70;99.90;;;;;;5030168;28;20037;-60
2023/01/10 10:07:33;;;;;;;7.85;5.18;;;22.70;99.90;;;;;;5032105;28;20504;-60
2023/01/10 10:09:59;;;;;;;7.75;5.20;;;22.80;99.90;;;;;;5032424;28;20033;-60
2023/01/10 10:12:59;;;;;;;7.47;4.40;;;22.80;99.90;;;;;;5032155;28;20017;-60
2023/01/10 10:16:09;;;;;;;26.45;5.60;;;22.80;99.90;;;;;;5032000;28;20421;-60
2023/01/10 10:19:03;;;;;;;10.07;4.85;;;22.90;99.90;;;;;;5012655;28;20034;-62
2023/01/10 10:21:48;;;;;;;7.60;4.53;;;22.90;99.90;;;;;;5035175;28;20394;-61
2023/01/10 10:24:39;;;;;;;7.32;5.00;;;23.00;99.90;;;;;;5036184;28;20021;-60
2023/01/10 10:27:40;;;;;;;8.95;4.55;;;23.10;99.90;;;;;;5025648;28;20478;-60
2023/01/10 10:30:18;;;;;;;9.90;5.30;;;23.10;99.90;;;;;;5036132;28;20470;-60
2023/01/10 10:32:57;;;;;;;9.93;4.20;;;23.20;99.90;;;;;;5035955;28;20076;-60
2023/01/10 10:35:37;;;;;;;6.43;4.00;;;23.20;99.90;;;;;;5035960;28;20025;-60
2023/01/10 10:38:25;;;;;;;5.30;4.22;;;23.30;99.90;;;;;;5036091;28;20058;-61
2023/01/10 10:40:52;;;;;;;9.55;4.72;;;23.30;99.90;;;;;;5032656;28;20503;-60
2023/01/10 10:43:29;;;;;;;7.88;4.10;;;23.30;99.90;;;;;;5026614;28;20024;-60
2023/01/10 10:46:08;;;;;;;7.72;4.35;;;23.40;99.90;;;;;;5026463;28;20072;-62
2023/01/10 10:48:41;;;;;;;7.53;3.60;;;23.50;99.90;;;;;;5028307;28;20363;-60
2023/01/10 10:51:16;;;;;;;25.17;6.82;;;23.50;99.90;;;;;;5023868;28;20108;-60
2023/01/10 10:53:41;;;;;;;8.55;4.10;;;23.60;99.90;;;;;;5023229;28;20049;-59
2023/01/10 10:56:13;;;;;;;8.13;3.78;;;23.60;99.90;;;;;;5026015;28;20025;-59
2023/01/10 10:58:42;;;;;;;6.47;3.90;;;23.60;99.90;;;;;;5031612;28;20076;-59
2023/01/10 11:01:15;;;;;;;10.98;4.70;;;23.70;99.90;;;;;;5035546;28;20045;-59
2023/01/10 11:03:48;;;;;;;9.13;4.38;;;23.70;99.90;;;;;;5035552;28;20100;-59
2023/01/10 11:06:16;;;;;;;8.63;4.40;;;23.70;99.90;;;;;;5034107;28;20025;-58
2023/01/10 11:08:44;;;;;;;10.85;3.97;;;23.80;99.90;;;;;;5035314;28;20022;-59
2023/01/10 11:11:33;;;;;;;7.70;3.72;;;23.80;99.90;;;;;;5035359;28;20040;-59
2023/01/10 11:14:01;;;;;;;8.45;3.13;;;23.90;99.90;;;;;;5015111;28;20033;-59
2023/01/10 11:16:30;;;;;;;4.97;2.95;;;23.90;99.90;;;;;;5020574;28;20017;-60
2023/01/10 11:19:18;;;;;;;11.25;3.20;;;23.90;99.90;;;;;;5034737;28;20097;-61
2023/01/10 11:22:05;;;;;;;6.72;3.30;;;24.00;99.90;;;;;;5033852;28;20117;-59
2023/01/10 11:24:30;;;;;;;;;;;24.00;99.90;;;;;;5035050;28;20010;-60
2023/01/10 11:26:58;;;;;;;12.68;3.72;;;24.10;99.90;;;;;;5034869;28;20284;-60
2023/01/10 11:29:38;;;;;;;3.90;2.35;;;24.10;99.90;;;;;;5032552;28;20022;-61
2023/01/10 11:32:14;;;;;;;6.28;2.45;;;24.20;99.90;;;;;;5032100;28;20034;-61
2023/01/10 11:34:47;;;;;;;5.68;2.85;;;24.20;99.90;;;;;;5034379;28;20112;-61
2023/01/10 11:37:16;;;;;;;5.28;2.33;;;24.20;99.90;;;;;;5034534;28;20417;-61
2023/01/10 11:39:42;;;;;;;6.85;2.88;;;24.30;99.90;;;;;;5034474;28;20029;-58
2023/01/10 11:42:23;;;;;;;5.82;2.17;;;24.30;99.90;;;;;;5034594;28;20037;-57
2023/01/10 11:44:49;;;;;;;5.25;2.50;;;24.30;99.90;;;;;;5034646;28;20029;-58
2023/01/10 11:47:19;;;;;;;12.60;2.92;;;24.30;99.90;;;;;;5032981;28;20033;-58
2023/01/10 11:49:47;;;;;;;7.97;2.50;;;24.40;99.90;;;;;;5033207;28;20030;-59
2023/01/10 11:52:26;;;;;;;6.40;2.58;;;24.40;99.90;;;;;;5033460;28;20543;-55
2023/01/10 11:54:55;;;;;;;8.25;2.33;;;24.40;99.90;;;;;;5034263;28;20454;-60
2023/01/10 11:57:26;;;;;;;6.75;2.78;;;24.40;99.90;;;;;;5033700;28;20120;-60
2023/01/10 12:00:19;;;;;;;8.48;2.35;;;24.50;99.90;;;;;;5033008;28;20425;-59
2023/01/10 12:02:45;;;;;;;5.18;2.63;;;24.50;99.90;;;;;;5032803;28;20077;-60
2023/01/10 12:05:18;;;;;;;13.25;3.10;;;24.50;99.90;;;;;;5034212;28;20068;-61
2023/01/10 12:07:55;;;;;;;6.80;2.58;;;24.50;99.90;;;;;;5033010;28;20025;-62
2023/01/10 12:10:23;;;;;;;5.65;2.10;;;24.60;99.90;;;;;;5034273;28;20036;-61
2023/01/10 12:12:56;;;;;;;6.28;2.40;;;24.60;99.90;;;;;;5033154;28;20025;-59
2023/01/10 12:15:30;;;;;;;8.77;2.35;;;24.70;99.90;;;;;;5032266;28;20029;-60
2023/01/10 12:18:02;;;;;;;5.70;2.17;;;24.70;99.90;;;;;;5033567;28;20096;-60
2023/01/10 12:20:31;;;;;;;5.15;2.15;;;24.70;99.90;;;;;;5031109;28;20025;-61
2023/01/10 12:23:03;;;;;;;5.90;2.15;;;24.70;99.90;;;;;;5033500;28;20025;-60
2023/01/10 12:25:34;;;;;;;5.97;2.13;;;24.80;99.90;;;;;;5031465;28;20445;-59
2023/01/10 12:28:00;;;;;;;5.00;2.22;;;24.80;99.90;;;;;;5033312;28;20079;-58
2023/01/10 12:30:34;;;;;;;5.47;2.00;;;24.80;99.90;;;;;;5033381;28;20021;-58
2023/01/10 12:33:05;;;;;;;8.93;2.00;;;24.90;99.90;;;;;;5033170;28;20112;-58
2023/01/10 12:35:47;;;;;;;3.80;1.95;;;24.90;99.90;;;;;;5033204;28;20014;-59
2023/01/10 12:39:03;;;;;;;6.82;1.80;;;24.90;99.90;;;;;;5031570;28;20029;-59
2023/01/10 12:44:42;;;;;;;5.47;2.05;;;25.00;99.90;;;;;;5032132;28;19919;-58
2023/01/10 12:47:33;;;;;;;4.90;2.20;;;25.00;99.90;;;;;;5030553;28;20026;-57
2023/01/10 12:50:14;;;;;;;3.25;1.65;;;25.00;99.90;;;;;;5031457;28;20026;-58
2023/01/10 12:52:47;;;;;;;5.40;2.20;;;25.00;99.90;;;;;;5032385;28;20359;-58
2023/01/10 12:55:17;;;;;;;5.13;1.90;;;25.00;99.90;;;;;;5033368;28;20048;-58
2023/01/10 12:57:52;;;;;;;4.22;2.03;;;25.10;99.90;;;;;;5031939;28;20377;-58
2023/01/10 13:00:23;;;;;;;8.95;2.10;;;25.10;99.90;;;;;;5031665;28;20045;-58
2023/01/10 13:02:54;;;;;;;7.88;1.90;;;25.10;99.90;;;;;;5033138;28;20029;-58
2023/01/10 13:05:23;;;;;;;8.68;2.00;;;25.10;99.90;;;;;;5033040;28;20031;-58
2023/01/10 13:07:51;;;;;;;6.78;1.80;;;25.20;99.90;;;;;;5033084;28;20493;-59
2023/01/10 13:10:20;;;;;;;7.72;1.88;;;25.20;99.90;;;;;;5030149;28;20099;-60